Time;durP1;ratioP1;P1;durP2;ratioP2;P2;SDS_P1;SDS_P2;PMS_P1;PMS_P2;Temp;Humidity;BMP_temperature;BMP_pressure;BME280_temperature;BME280_humidity;BME280_pressure;Samples;Min_cycle;Max_cycle;Signal;HPM_P1;HPM_P2
2023/08/05 00:01:38;;;;;;;7.38;3.45;;;17.40;96.90;;;;;;5015907;28;20401;-75
2023/08/05 00:04:03;;;;;;;8.50;3.88;;;17.40;96.90;;;;;;5000243;28;20148;-75
2023/08/05 00:06:29;;;;;;;7.05;3.75;;;17.30;97.00;;;;;;5015812;28;20474;-75
2023/08/05 00:08:54;;;;;;;11.00;4.30;;;17.30;97.00;;;;;;5033305;28;20531;-75
2023/08/05 00:11:20;;;;;;;5.47;3.67;;;17.30;97.10;;;;;;5015730;28;20029;-75
2023/08/05 00:13:46;;;;;;;7.88;4.20;;;17.30;97.10;;;;;;4983057;28;20057;-75
2023/08/05 00:16:11;;;;;;;7.65;3.97;;;17.30;97.20;;;;;;5015518;28;20116;-75
2023/08/05 00:18:37;;;;;;;7.78;3.30;;;17.30;97.20;;;;;;4999612;28;20478;-75
2023/08/05 00:21:02;;;;;;;8.60;3.90;;;17.20;97.30;;;;;;4999399;28;20072;-76
2023/08/05 00:23:28;;;;;;;10.25;3.88;;;17.20;97.40;;;;;;5015656;28;20048;-76
2023/08/05 00:25:54;;;;;;;9.82;3.75;;;17.30;97.80;;;;;;5032079;28;20072;-76
2023/08/05 00:28:19;;;;;;;8.30;3.90;;;17.30;97.60;;;;;;5015261;28;20025;-75
2023/08/05 00:30:45;;;;;;;9.48;3.95;;;17.30;97.70;;;;;;4982931;28;20033;-76
2023/08/05 00:33:10;;;;;;;8.88;3.63;;;17.30;97.80;;;;;;5015659;28;20040;-75
2023/08/05 00:35:37;;;;;;;6.15;3.28;;;17.30;97.90;;;;;;4999135;28;20033;-76
2023/08/05 00:38:03;;;;;;;6.93;3.25;;;17.30;97.90;;;;;;5015450;28;20025;-75
2023/08/05 00:40:28;;;;;;;11.50;3.53;;;17.20;98.00;;;;;;5015480;28;20492;-75
2023/08/05 00:42:54;;;;;;;7.97;3.60;;;17.30;98.00;;;;;;5033193;28;20017;-75
2023/08/05 00:45:20;;;;;;;7.00;3.60;;;17.30;98.10;;;;;;5015964;28;20022;-75
2023/08/05 00:47:46;;;;;;;7.43;3.90;;;17.20;98.20;;;;;;4999496;28;20061;-75
2023/08/05 00:50:13;;;;;;;8.95;4.28;;;17.20;98.30;;;;;;4999118;28;20485;-76
2023/08/05 00:52:40;;;;;;;7.45;3.58;;;17.30;98.40;;;;;;5015368;28;20037;-76
2023/08/05 00:55:06;;;;;;;5.53;3.33;;;17.20;98.40;;;;;;4999069;28;20382;-75
2023/08/05 00:57:33;;;;;;;9.70;3.05;;;17.20;98.50;;;;;;4982652;28;20500;-76
2023/08/05 00:59:58;;;;;;;7.90;3.25;;;17.30;98.60;;;;;;5015824;28;20113;-75
2023/08/05 01:02:24;;;;;;;8.50;3.63;;;17.30;98.60;;;;;;5016090;28;20101;-76
2023/08/05 01:04:50;;;;;;;7.50;3.78;;;17.30;98.60;;;;;;5019058;28;20109;-76
2023/08/05 01:07:17;;;;;;;5.72;3.17;;;17.30;98.60;;;;;;5002379;28;20033;-75
2023/08/05 01:09:43;;;;;;;5.75;2.60;;;17.30;98.60;;;;;;5019198;28;20029;-76
2023/08/05 01:12:09;;;;;;;6.10;3.95;;;17.30;98.70;;;;;;4985903;28;20032;-76
2023/08/05 01:14:34;;;;;;;6.38;3.35;;;17.20;98.70;;;;;;5018782;28;20040;-75
2023/08/05 01:17:01;;;;;;;5.68;3.75;;;17.30;98.80;;;;;;5002508;28;20437;-76
2023/08/05 01:19:28;;;;;;;8.32;3.28;;;17.30;98.80;;;;;;4987015;28;20033;-76
2023/08/05 01:22:10;;;;;;;6.22;3.72;;;17.30;98.90;;;;;;5002123;28;20525;-75
2023/08/05 01:24:51;;;;;;;12.38;3.75;;;17.20;98.90;;;;;;5036107;28;20060;-76
2023/08/05 01:27:17;;;;;;;7.88;3.55;;;17.20;98.90;;;;;;5036513;28;20108;-75
2023/08/05 01:29:43;;;;;;;8.27;3.65;;;17.20;99.00;;;;;;5034673;28;20104;-76
2023/08/05 01:32:10;;;;;;;7.97;3.75;;;17.20;99.10;;;;;;5036086;28;20033;-75
2023/08/05 01:34:37;;;;;;;7.28;3.42;;;17.10;99.20;;;;;;5035928;28;20025;-76
2023/08/05 01:37:03;;;;;;;7.43;4.07;;;17.10;99.20;;;;;;5034414;28;20446;-76
2023/08/05 01:39:28;;;;;;;6.15;3.78;;;17.10;99.30;;;;;;5002184;28;20053;-76
2023/08/05 01:41:54;;;;;;;7.38;3.63;;;17.10;99.30;;;;;;4986184;28;20025;-76
2023/08/05 01:44:20;;;;;;;8.27;3.70;;;17.10;99.40;;;;;;5001912;28;20033;-76
2023/08/05 01:46:45;;;;;;;6.57;3.92;;;17.10;99.50;;;;;;5018515;28;20021;-76
2023/08/05 01:49:11;;;;;;;6.55;3.15;;;17.00;99.50;;;;;;5001924;28;20026;-77
2023/08/05 01:51:37;;;;;;;6.75;3.70;;;17.00;99.60;;;;;;4985705;28;20461;-75
2023/08/05 01:54:02;;;;;;;5.68;3.08;;;17.00;99.70;;;;;;4985473;28;20029;-75
2023/08/05 01:56:28;;;;;;;8.15;3.15;;;17.00;99.70;;;;;;5018452;28;20037;-76
2023/08/05 01:58:53;;;;;;;8.88;3.47;;;17.00;99.70;;;;;;5035370;28;20041;-75
2023/08/05 02:01:19;;;;;;;6.20;2.90;;;17.00;99.80;;;;;;4985365;28;20429;-76
2023/08/05 02:03:45;;;;;;;8.98;3.80;;;17.00;99.80;;;;;;5001490;28;20025;-76
2023/08/05 02:06:10;;;;;;;7.10;3.00;;;17.00;99.90;;;;;;5018018;28;20021;-76
2023/08/05 02:08:36;;;;;;;6.25;2.95;;;17.00;99.90;;;;;;4985046;28;20366;-76
2023/08/05 02:11:03;;;;;;;4.20;2.35;;;17.00;99.90;;;;;;5017866;28;20034;-76
2023/08/05 02:13:29;;;;;;;6.85;3.22;;;17.00;99.90;;;;;;5017076;28;20033;-76
2023/08/05 02:15:54;;;;;;;8.38;3.40;;;17.00;99.90;;;;;;5017586;28;20039;-76
2023/08/05 02:18:20;;;;;;;6.13;3.30;;;17.00;99.90;;;;;;4984950;28;20112;-77
2023/08/05 02:20:46;;;;;;;5.75;3.22;;;17.00;99.90;;;;;;5017643;28;20442;-76
2023/08/05 02:23:11;;;;;;;8.60;3.65;;;17.00;99.90;;;;;;5017428;28;20021;-76
2023/08/05 02:25:37;;;;;;;9.15;2.67;;;17.00;99.90;;;;;;5001099;28;20412;-76
2023/08/05 02:28:02;;;;;;;6.00;2.92;;;17.00;99.90;;;;;;5033793;28;20508;-76
2023/08/05 02:30:28;;;;;;;5.78;2.78;;;17.00;99.90;;;;;;5017533;28;20064;-76
2023/08/05 02:32:54;;;;;;;6.13;2.70;;;17.00;99.90;;;;;;5017157;28;20052;-76
2023/08/05 02:35:19;;;;;;;5.57;2.42;;;17.00;99.90;;;;;;5001034;28;20534;-76
2023/08/05 02:37:45;;;;;;;4.90;2.55;;;17.00;99.90;;;;;;4984300;28;20389;-76
2023/08/05 02:40:11;;;;;;;4.50;2.45;;;17.10;99.90;;;;;;4984725;28;20080;-83
2023/08/05 02:42:36;;;;;;;4.82;2.30;;;17.10;99.90;;;;;;5034871;28;20024;-84
2023/08/05 02:45:02;;;;;;;4.95;2.42;;;17.10;99.90;;;;;;5017002;28;20033;-83
2023/08/05 02:47:28;;;;;;;4.63;2.10;;;17.10;99.90;;;;;;5000653;28;20080;-83
2023/08/05 02:49:54;;;;;;;7.43;2.97;;;17.10;99.90;;;;;;5000610;28;20025;-83
2023/08/05 02:52:19;;;;;;;4.78;2.35;;;17.00;99.90;;;;;;5016918;28;20120;-84
2023/08/05 02:54:45;;;;;;;5.28;2.60;;;17.00;99.90;;;;;;5016997;28;20030;-83
2023/08/05 02:57:11;;;;;;;7.63;2.83;;;17.00;99.90;;;;;;5016936;28;20057;-84
2023/08/05 02:59:37;;;;;;;4.70;2.53;;;17.00;99.90;;;;;;5016906;28;20443;-83
2023/08/05 03:02:03;;;;;;;5.05;2.55;;;17.00;99.90;;;;;;5016863;28;20104;-83
2023/08/05 03:04:28;;;;;;;9.07;3.45;;;16.90;99.90;;;;;;5016774;28;20053;-84
2023/08/05 03:06:54;;;;;;;7.53;3.08;;;16.90;99.90;;;;;;5032917;28;20064;-83
2023/08/05 03:09:20;;;;;;;5.20;2.90;;;16.90;99.90;;;;;;5016614;28;20029;-83
2023/08/05 03:11:45;;;;;;;6.90;2.92;;;16.80;99.90;;;;;;5034056;28;20025;-83
2023/08/05 03:14:11;;;;;;;7.32;3.50;;;16.80;99.90;;;;;;5034147;28;20037;-82
2023/08/05 03:16:37;;;;;;;7.85;2.78;;;16.70;99.90;;;;;;5034286;28;20104;-84
2023/08/05 03:19:03;;;;;;;6.82;3.53;;;16.70;99.90;;;;;;5034089;28;20473;-84
2023/08/05 03:21:28;;;;;;;7.00;2.97;;;16.70;99.90;;;;;;5016495;28;20041;-83
2023/08/05 03:23:54;;;;;;;5.47;2.63;;;16.60;99.90;;;;;;5016668;28;20040;-84
2023/08/05 03:26:20;;;;;;;9.20;3.08;;;16.60;99.90;;;;;;5033279;28;20104;-83
2023/08/05 03:28:45;;;;;;;8.02;3.10;;;16.60;99.90;;;;;;5033741;28;20053;-83
2023/08/05 03:31:11;;;;;;;9.23;3.22;;;16.60;99.90;;;;;;5016276;28;20160;-83
2023/08/05 03:33:36;;;;;;;6.22;2.75;;;16.50;99.90;;;;;;5016274;28;20056;-83
2023/08/05 03:36:02;;;;;;;8.90;3.17;;;16.50;99.90;;;;;;5016072;28;20044;-82
2023/08/05 03:38:28;;;;;;;8.95;3.50;;;16.50;99.90;;;;;;5033750;28;20036;-83
2023/08/05 03:40:54;;;;;;;5.90;2.65;;;16.50;99.90;;;;;;4999780;28;20211;-83
2023/08/05 03:43:19;;;;;;;4.43;2.58;;;16.50;99.90;;;;;;5034038;28;20042;-83
2023/08/05 03:45:51;;;;;;;5.85;2.67;;;16.50;99.90;;;;;;5015911;28;20405;-83
2023/08/05 03:48:17;;;;;;;8.20;3.35;;;16.50;99.90;;;;;;5033473;28;20034;-83
2023/08/05 03:50:42;;;;;;;5.13;3.13;;;16.40;99.90;;;;;;5033897;28;20033;-83
2023/08/05 03:53:08;;;;;;;4.88;2.83;;;16.40;99.90;;;;;;4999363;28;20492;-83
2023/08/05 03:55:34;;;;;;;5.78;3.05;;;16.40;99.90;;;;;;5015949;28;20033;-83
2023/08/05 03:57:59;;;;;;;6.20;3.10;;;16.40;99.90;;;;;;5015727;28;20120;-83
2023/08/05 04:00:25;;;;;;;7.22;3.17;;;16.40;99.90;;;;;;5015848;28;20034;-83
2023/08/05 04:02:51;;;;;;;6.25;2.90;;;16.40;99.90;;;;;;5015735;28;20030;-83
2023/08/05 04:05:16;;;;;;;11.48;3.38;;;16.30;99.90;;;;;;5033400;28;20470;-83
2023/08/05 04:07:42;;;;;;;5.65;2.83;;;16.30;99.90;;;;;;5015937;28;20041;-83
2023/08/05 04:10:08;;;;;;;8.65;3.25;;;16.40;99.90;;;;;;5015943;28;20034;-83
2023/08/05 04:12:35;;;;;;;4.20;2.25;;;16.40;99.90;;;;;;5015827;28;20041;-84
2023/08/05 04:15:02;;;;;;;5.05;3.03;;;16.40;99.90;;;;;;4983670;28;20548;-83
2023/08/05 04:17:28;;;;;;;5.90;3.30;;;16.40;99.90;;;;;;5033183;28;20065;-83
2023/08/05 04:19:53;;;;;;;4.68;2.70;;;16.40;99.90;;;;;;4999356;28;20068;-83
2023/08/05 04:22:22;;;;;;;5.82;2.80;;;16.40;99.90;;;;;;4999215;28;20029;-83
2023/08/05 04:24:47;;;;;;;8.77;3.00;;;16.40;99.90;;;;;;5016016;28;20466;-83
2023/08/05 04:27:13;;;;;;;5.28;2.72;;;16.40;99.90;;;;;;5015520;28;20030;-83
2023/08/05 04:29:39;;;;;;;6.68;3.30;;;16.50;99.90;;;;;;4997419;28;20064;-83
2023/08/05 04:32:05;;;;;;;7.03;3.53;;;16.50;99.90;;;;;;5033398;28;20030;-84
2023/08/05 04:34:35;;;;;;;7.57;3.22;;;16.50;99.90;;;;;;5015658;28;20420;-83
2023/08/05 04:37:15;;;;;;;8.73;3.53;;;16.50;99.90;;;;;;5012782;28;20030;-85
2023/08/05 04:39:41;;;;;;;6.55;3.28;;;16.50;99.90;;;;;;5019289;28;20032;-84
2023/08/05 04:42:07;;;;;;;6.13;3.33;;;16.50;99.90;;;;;;5019320;28;20029;-84
2023/08/05 04:44:32;;;;;;;6.70;3.63;;;16.50;99.90;;;;;;5019443;28;20025;-84
2023/08/05 04:46:58;;;;;;;7.45;3.25;;;16.50;99.90;;;;;;5019452;28;20049;-84
2023/08/05 04:49:24;;;;;;;9.30;3.95;;;16.50;99.90;;;;;;5019547;28;20221;-84
2023/08/05 04:51:49;;;;;;;7.82;3.47;;;16.50;99.90;;;;;;5037231;28;20061;-84
2023/08/05 04:54:15;;;;;;;5.72;3.50;;;16.50;99.90;;;;;;5036817;28;20025;-83
2023/08/05 04:56:40;;;;;;;5.50;3.10;;;16.50;99.90;;;;;;5019490;28;20428;-84
2023/08/05 04:59:06;;;;;;;7.35;3.88;;;16.50;99.90;;;;;;5002689;28;20032;-83
2023/08/05 05:01:32;;;;;;;6.47;3.38;;;16.50;99.90;;;;;;5018955;28;20038;-84
2023/08/05 05:03:58;;;;;;;9.98;4.38;;;16.50;99.90;;;;;;5036534;28;20032;-83
2023/08/05 05:06:24;;;;;;;6.47;3.63;;;16.50;99.90;;;;;;5018843;28;20017;-83
2023/08/05 05:08:49;;;;;;;5.20;3.25;;;16.50;99.90;;;;;;5002419;28;20034;-83
2023/08/05 05:11:15;;;;;;;8.05;3.58;;;16.50;99.90;;;;;;5002463;28;20040;-83
2023/08/05 05:13:43;;;;;;;7.57;3.70;;;16.50;99.90;;;;;;5018685;28;20021;-83
2023/08/05 05:16:10;;;;;;;7.20;3.95;;;16.50;99.90;;;;;;5036390;28;20485;-84
2023/08/05 05:18:36;;;;;;;6.47;3.90;;;16.50;99.90;;;;;;5002520;28;20117;-84
2023/08/05 05:21:02;;;;;;;10.43;3.80;;;16.50;99.90;;;;;;5018553;28;20108;-83
2023/08/05 05:23:27;;;;;;;9.70;3.90;;;16.50;99.90;;;;;;5018641;28;20380;-83
2023/08/05 05:25:53;;;;;;;8.15;4.32;;;16.60;99.90;;;;;;5018593;28;20448;-84
2023/08/05 05:28:18;;;;;;;8.13;3.75;;;16.60;99.90;;;;;;5018404;28;20129;-84
2023/08/05 05:30:44;;;;;;;7.80;4.63;;;16.60;99.90;;;;;;5001996;28;20044;-83
2023/08/05 05:33:10;;;;;;;6.80;4.35;;;16.60;99.90;;;;;;5036049;28;20105;-84
2023/08/05 05:35:35;;;;;;;8.40;4.47;;;16.60;99.90;;;;;;5001931;28;20550;-84
2023/08/05 05:38:01;;;;;;;8.25;4.30;;;16.60;99.90;;;;;;5001837;28;20025;-83
2023/08/05 05:40:26;;;;;;;9.60;4.18;;;16.70;99.90;;;;;;5018401;28;20052;-84
2023/08/05 05:42:52;;;;;;;7.57;4.55;;;16.70;99.90;;;;;;5002614;28;20079;-84
2023/08/05 05:45:18;;;;;;;8.57;4.57;;;16.70;99.90;;;;;;5001762;28;20029;-84
2023/08/05 05:47:44;;;;;;;7.60;4.78;;;16.80;99.90;;;;;;5017874;28;20037;-84
2023/08/05 05:50:10;;;;;;;9.98;4.55;;;16.70;99.90;;;;;;5018010;28;20493;-84
2023/08/05 05:52:36;;;;;;;7.95;4.18;;;16.80;99.90;;;;;;5018277;28;20029;-83
2023/08/05 05:55:03;;;;;;;7.30;3.85;;;16.80;99.90;;;;;;5018027;28;20481;-84
2023/08/05 05:57:28;;;;;;;12.55;6.28;;;16.80;99.90;;;;;;5018125;28;20026;-83
2023/08/05 05:59:55;;;;;;;7.32;4.55;;;16.90;99.90;;;;;;5017851;28;20025;-83
2023/08/05 06:02:21;;;;;;;8.70;4.60;;;16.90;99.90;;;;;;5035675;28;20022;-84
2023/08/05 06:04:47;;;;;;;8.63;5.13;;;16.90;99.90;;;;;;5036153;28;20022;-84
2023/08/05 06:07:13;;;;;;;10.15;4.82;;;16.90;99.90;;;;;;5017947;28;20021;-86
2023/08/05 06:09:39;;;;;;;12.85;6.18;;;17.00;99.90;;;;;;5001661;28;20017;-84
2023/08/05 06:12:07;;;;;;;10.60;6.45;;;17.00;99.90;;;;;;5018248;28;20079;-84
2023/08/05 06:14:33;;;;;;;9.82;6.40;;;17.00;99.90;;;;;;5017716;28;20036;-85
2023/08/05 06:16:59;;;;;;;11.05;6.70;;;17.00;99.90;;;;;;5017680;28;20022;-85
2023/08/05 06:19:25;;;;;;;12.60;7.13;;;17.00;99.90;;;;;;5017626;28;20033;-83
2023/08/05 06:21:50;;;;;;;11.15;6.25;;;17.10;99.90;;;;;;5017562;28;20491;-85
2023/08/05 06:24:16;;;;;;;11.65;6.53;;;17.10;99.90;;;;;;5017726;28;20105;-84
2023/08/05 06:26:41;;;;;;;10.20;7.18;;;17.20;99.90;;;;;;5017698;28;20119;-85
2023/08/05 06:29:07;;;;;;;11.20;6.95;;;17.20;99.90;;;;;;5014373;28;20073;-84
2023/08/05 06:31:33;;;;;;;9.82;6.03;;;17.20;99.90;;;;;;5014133;28;20037;-85
2023/08/05 06:33:58;;;;;;;10.05;6.25;;;17.20;99.90;;;;;;5014271;28;20034;-85
2023/08/05 06:36:24;;;;;;;11.20;6.72;;;17.30;99.90;;;;;;5013980;28;20168;-86
2023/08/05 06:38:49;;;;;;;12.35;8.73;;;17.30;99.90;;;;;;5015193;28;20034;-85
2023/08/05 06:41:15;;;;;;;13.57;8.13;;;17.40;99.90;;;;;;5014852;28;20448;-87
2023/08/05 06:43:41;;;;;;;13.93;7.95;;;17.30;99.90;;;;;;5014199;28;20026;-84
2023/08/05 06:46:06;;;;;;;14.48;8.73;;;17.40;99.90;;;;;;5014035;28;20026;-85
2023/08/05 06:48:33;;;;;;;10.90;7.45;;;17.40;99.90;;;;;;5013707;28;20430;-85
2023/08/05 06:50:58;;;;;;;13.65;8.05;;;17.50;99.90;;;;;;5013839;28;20041;-86
2023/08/05 06:53:24;;;;;;;13.13;9.45;;;17.50;99.90;;;;;;5013862;28;20080;-87
2023/08/05 06:56:03;;;;;;;12.43;8.93;;;17.60;99.90;;;;;;5013772;28;20034;-85
2023/08/05 06:58:28;;;;;;;17.35;8.52;;;17.60;99.90;;;;;;5014724;28;20163;-86
2023/08/05 07:00:55;;;;;;;13.77;8.57;;;17.70;99.90;;;;;;4996774;28;20018;-86
2023/08/05 07:03:22;;;;;;;16.38;9.32;;;17.70;99.90;;;;;;5013922;28;20054;-85
2023/08/05 07:05:48;;;;;;;15.68;8.68;;;17.80;99.90;;;;;;5013965;28;20030;-86
2023/08/05 07:08:14;;;;;;;14.88;9.63;;;17.80;99.90;;;;;;5013538;28;20045;-86
2023/08/05 07:10:40;;;;;;;13.82;8.57;;;17.80;99.90;;;;;;5013579;28;20061;-83
2023/08/05 07:13:06;;;;;;;17.27;9.02;;;17.80;99.90;;;;;;5013234;28;20367;-86
2023/08/05 07:15:38;;;;;;;11.10;7.72;;;17.80;99.90;;;;;;4997042;28;20493;-86
2023/08/05 07:18:05;;;;;;;12.80;6.65;;;17.80;99.90;;;;;;5013367;28;20079;-85
2023/08/05 07:20:30;;;;;;;12.70;6.50;;;17.80;99.90;;;;;;4996922;28;20033;-84
2023/08/05 07:22:56;;;;;;;9.20;6.18;;;17.90;99.90;;;;;;4996974;28;20026;-85
2023/08/05 07:25:22;;;;;;;11.55;6.60;;;17.90;99.90;;;;;;4996864;28;20022;-84
2023/08/05 07:27:47;;;;;;;10.15;6.10;;;18.00;99.90;;;;;;5013190;28;20421;-86
2023/08/05 07:30:13;;;;;;;11.48;6.60;;;18.00;99.90;;;;;;5013470;28;20426;-85
2023/08/05 07:32:39;;;;;;;7.53;5.03;;;18.20;99.90;;;;;;5014397;28;20109;-85
2023/08/05 07:35:07;;;;;;;8.63;5.32;;;18.30;99.90;;;;;;5012990;28;20018;-88
2023/08/05 07:37:34;;;;;;;10.32;4.55;;;18.50;99.90;;;;;;4997129;28;20123;-86
2023/08/05 07:39:59;;;;;;;9.02;4.07;;;18.60;99.90;;;;;;5014390;28;20045;-84
2023/08/05 07:42:27;;;;;;;6.20;3.70;;;18.70;99.90;;;;;;5014284;28;20473;-83
2023/08/05 07:44:53;;;;;;;7.13;3.58;;;18.80;99.90;;;;;;4996755;28;20030;-85
2023/08/05 07:47:19;;;;;;;6.03;3.55;;;18.90;99.90;;;;;;5012728;28;20072;-85
2023/08/05 07:49:45;;;;;;;3.95;2.40;;;19.00;99.90;;;;;;5012978;28;20029;-87
2023/08/05 07:52:10;;;;;;;8.30;3.20;;;19.00;99.80;;;;;;5012897;28;20088;-86
2023/08/05 07:54:36;;;;;;;3.90;2.30;;;19.00;99.30;;;;;;4996436;28;20488;-86
2023/08/05 07:57:02;;;;;;;5.70;2.42;;;19.00;99.10;;;;;;4996286;28;20026;-83
2023/08/05 07:59:28;;;;;;;5.85;2.50;;;19.00;98.30;;;;;;5012262;28;20038;-84
2023/08/05 08:01:55;;;;;;;5.13;2.45;;;19.00;97.90;;;;;;5012557;28;20030;-85
2023/08/05 08:04:21;;;;;;;5.70;2.80;;;19.00;97.40;;;;;;4996393;28;20026;-87
2023/08/05 08:06:47;;;;;;;5.55;2.72;;;19.10;96.90;;;;;;5012480;28;20032;-84
2023/08/05 08:09:13;;;;;;;6.18;2.30;;;19.00;96.50;;;;;;4980253;28;20040;-84
2023/08/05 08:11:39;;;;;;;5.40;2.28;;;19.00;96.40;;;;;;5013212;28;20033;-86
2023/08/05 08:14:04;;;;;;;5.78;2.92;;;18.90;96.10;;;;;;4996047;28;20117;-85
2023/08/05 08:16:33;;;;;;;6.97;3.70;;;18.90;95.80;;;;;;5013574;28;20105;-85
2023/08/05 08:18:59;;;;;;;5.82;3.38;;;18.90;95.50;;;;;;5015015;28;20034;-86
2023/08/05 08:21:25;;;;;;;4.25;2.20;;;18.90;95.70;;;;;;5015253;28;20029;-85
2023/08/05 08:23:50;;;;;;;5.13;2.08;;;19.00;96.00;;;;;;4998844;28;20030;-83
2023/08/05 08:26:16;;;;;;;5.40;1.95;;;19.00;95.80;;;;;;5015819;28;20033;-82
2023/08/05 08:28:41;;;;;;;3.88;2.33;;;19.20;95.90;;;;;;5012115;28;20406;-83
2023/08/05 08:31:07;;;;;;;5.22;2.95;;;19.30;95.60;;;;;;5013819;28;20056;-84
2023/08/05 08:33:33;;;;;;;3.78;2.28;;;19.30;95.30;;;;;;5014881;28;20033;-84
2023/08/05 08:35:58;;;;;;;4.78;2.28;;;19.40;94.90;;;;;;5012933;28;20045;-85
2023/08/05 08:38:25;;;;;;;7.07;2.35;;;19.50;94.80;;;;;;5013558;28;20033;-85
2023/08/05 08:40:52;;;;;;;4.43;2.30;;;19.60;94.70;;;;;;5014429;28;20022;-84
2023/08/05 08:43:21;;;;;;;6.85;2.70;;;19.60;94.30;;;;;;5012857;28;20022;-83
2023/08/05 08:45:52;;;;;;;5.88;2.83;;;19.70;94.00;;;;;;4996338;28;20446;-85
2023/08/05 08:48:18;;;;;;;3.88;2.35;;;19.70;93.70;;;;;;4995765;28;20022;-84
2023/08/05 08:50:44;;;;;;;4.50;2.63;;;19.70;93.70;;;;;;4997147;28;20108;-85
2023/08/05 08:53:13;;;;;;;5.32;3.33;;;19.80;93.70;;;;;;4995796;28;20429;-84
2023/08/05 08:55:43;;;;;;;4.95;2.97;;;19.70;93.10;;;;;;4995712;28;20030;-87
2023/08/05 08:58:10;;;;;;;5.93;2.75;;;19.80;92.90;;;;;;5012247;28;20470;-86
2023/08/05 09:00:37;;;;;;;7.63;4.03;;;19.70;93.00;;;;;;5012986;28;20109;-86
2023/08/05 09:03:04;;;;;;;7.43;4.43;;;19.70;92.50;;;;;;4995791;28;20473;-85
2023/08/05 09:06:05;;;;;;;5.15;3.47;;;19.60;92.20;;;;;;5012345;28;20026;-83
2023/08/05 09:08:33;;;;;;;7.10;3.60;;;19.60;92.20;;;;;;4999592;28;20153;-86
2023/08/05 09:11:00;;;;;;;6.90;4.00;;;19.60;92.40;;;;;;5012870;28;20030;-84
2023/08/05 09:13:26;;;;;;;5.10;2.97;;;19.60;92.20;;;;;;5014611;28;20121;-87
2023/08/05 09:15:54;;;;;;;4.47;3.00;;;19.70;92.20;;;;;;4997877;28;20053;-87
2023/08/05 09:18:20;;;;;;;4.45;3.00;;;19.90;92.20;;;;;;5014721;28;20062;-82
2023/08/05 09:20:49;;;;;;;7.03;3.70;;;19.90;91.70;;;;;;4995504;28;20030;-83
2023/08/05 09:23:15;;;;;;;7.93;3.80;;;20.00;91.30;;;;;;4995725;28;20473;-86
2023/08/05 09:25:47;;;;;;;5.72;2.97;;;20.10;91.20;;;;;;5015229;28;20033;-83
2023/08/05 09:28:13;;;;;;;4.30;2.53;;;20.20;91.10;;;;;;5016601;28;20022;-83
2023/08/05 09:30:39;;;;;;;5.45;2.33;;;20.40;90.90;;;;;;5018522;28;20044;-86
2023/08/05 09:33:05;;;;;;;4.45;2.30;;;20.50;90.20;;;;;;5018376;28;20025;-86
2023/08/05 09:35:31;;;;;;;4.88;2.50;;;20.60;89.60;;;;;;5035368;28;20033;-88
2023/08/05 09:37:56;;;;;;;5.63;2.63;;;20.70;89.10;;;;;;5001895;28;20030;-87
2023/08/05 09:40:31;;;;;;;3.85;1.90;;;20.80;88.40;;;;;;5018444;28;20397;-88
2023/08/05 09:42:59;;;;;;;4.05;1.65;;;20.80;86.20;;;;;;5003267;28;20112;-84
2023/08/05 09:45:27;;;;;;;3.97;1.95;;;20.90;85.60;;;;;;5036152;28;20033;-86
2023/08/05 09:48:03;;;;;;;4.43;1.63;;;21.00;85.90;;;;;;5036178;28;20470;-85
2023/08/05 09:50:30;;;;;;;3.88;1.85;;;21.00;85.50;;;;;;5018420;28;20033;-87
2023/08/05 09:52:59;;;;;;;3.28;1.95;;;21.10;84.80;;;;;;5002022;28;20052;-85
2023/08/05 09:55:26;;;;;;;2.83;1.63;;;21.10;84.40;;;;;;5035735;28;20084;-87
2023/08/05 09:57:53;;;;;;;3.72;2.20;;;21.20;84.60;;;;;;5018093;28;20075;-87
2023/08/05 10:00:19;;;;;;;5.75;2.00;;;21.30;84.60;;;;;;5035886;28;20013;-86
2023/08/05 10:02:46;;;;;;;4.03;1.48;;;21.40;83.60;;;;;;4985782;28;20113;-89
2023/08/05 10:05:12;;;;;;;2.53;1.60;;;21.40;82.90;;;;;;4985677;28;20026;-88
2023/08/05 10:07:40;;;;;;;4.72;2.15;;;21.50;82.80;;;;;;5018506;28;20025;-89
2023/08/05 10:10:16;;;;;;;4.10;2.35;;;21.50;82.20;;;;;;5001696;28;20061;-85
2023/08/05 10:12:58;;;;;;;4.53;2.40;;;21.60;81.90;;;;;;5017758;28;20032;-85
2023/08/05 10:15:33;;;;;;;3.72;2.13;;;21.60;81.30;;;;;;5017680;28;20025;-82
2023/08/05 10:17:59;;;;;;;7.10;2.50;;;21.80;81.40;;;;;;5017524;28;20021;-88
2023/08/05 10:20:24;;;;;;;2.95;1.48;;;21.80;80.30;;;;;;4985323;28;20092;-80
2023/08/05 10:23:10;;;;;;;3.83;2.28;;;21.90;80.60;;;;;;5000958;28;20179;-79
2023/08/05 10:25:46;;;;;;;3.72;1.83;;;21.80;79.40;;;;;;5035100;28;20024;-81
2023/08/05 10:28:24;;;;;;;5.32;2.47;;;21.80;79.70;;;;;;5017111;28;20029;-80
2023/08/05 10:30:50;;;;;;;4.05;1.92;;;21.80;79.30;;;;;;5017300;28;20033;-80
2023/08/05 10:33:16;;;;;;;5.05;2.45;;;21.80;79.50;;;;;;5017092;28;20021;-80
2023/08/05 10:35:45;;;;;;;6.43;3.05;;;21.90;78.90;;;;;;5034813;28;20108;-80
2023/08/05 10:38:24;;;;;;;6.53;2.42;;;22.10;78.60;;;;;;5000748;28;20049;-80
2023/08/05 10:41:02;;;;;;;3.05;1.80;;;22.30;78.80;;;;;;5016320;28;20029;-80
2023/08/05 10:43:31;;;;;;;4.07;1.95;;;22.50;78.50;;;;;;5016464;28;20108;-80
2023/08/05 10:46:05;;;;;;;3.65;1.92;;;22.90;78.00;;;;;;5016779;28;20060;-80
2023/08/05 10:48:36;;;;;;;4.22;2.00;;;23.20;77.00;;;;;;5034414;28;20029;-81
2023/08/05 10:51:19;;;;;;;3.65;1.77;;;23.40;76.10;;;;;;5034488;28;20026;-80
2023/08/05 10:53:58;;;;;;;4.87;2.20;;;23.40;75.50;;;;;;5034579;28;20026;-80
2023/08/05 10:56:31;;;;;;;4.32;2.15;;;23.30;74.30;;;;;;5034530;28;20029;-80
2023/08/05 10:59:03;;;;;;;2.65;1.63;;;23.20;73.60;;;;;;5000314;28;20072;-77
2023/08/05 11:01:55;;;;;;;3.75;1.90;;;23.00;73.40;;;;;;5016795;28;20060;-80
2023/08/05 11:04:39;;;;;;;2.83;1.42;;;22.90;73.60;;;;;;5016661;28;20080;-80
2023/08/05 11:07:05;;;;;;;4.90;1.90;;;22.80;74.00;;;;;;5016599;28;20030;-78
2023/08/05 11:09:34;;;;;;;5.70;1.75;;;22.80;73.70;;;;;;5016608;28;20052;-80
2023/08/05 11:12:00;;;;;;;3.65;1.05;;;23.00;74.30;;;;;;5034104;28;20072;-78
2023/08/05 11:14:27;;;;;;;3.15;1.20;;;23.30;75.10;;;;;;5016455;28;20132;-80
2023/08/05 11:17:00;;;;;;;3.55;1.70;;;23.70;73.70;;;;;;5034566;28;20037;-80
2023/08/05 11:19:26;;;;;;;;;;;23.90;72.60;;;;;;5016814;28;20508;-80
2023/08/05 11:21:52;;;;;;;2.65;1.25;;;24.10;71.80;;;;;;4999823;28;19909;-79
2023/08/05 11:24:18;;;;;;;3.92;1.00;;;24.20;72.10;;;;;;5034008;28;20037;-80
2023/08/05 11:26:44;;;;;;;2.47;1.10;;;24.40;71.30;;;;;;5033969;28;20025;-79
2023/08/05 11:29:10;;;;;;;2.42;0.93;;;24.50;70.80;;;;;;5032092;28;20045;-81
2023/08/05 11:31:36;;;;;;;1.73;0.88;;;24.60;69.90;;;;;;5032489;28;20026;-81
2023/08/05 11:34:01;;;;;;;2.78;1.10;;;24.60;69.10;;;;;;5015947;28;20036;-80
2023/08/05 11:36:29;;;;;;;2.35;0.93;;;24.40;68.50;;;;;;5032504;28;20382;-80
2023/08/05 11:38:59;;;;;;;2.92;1.02;;;24.20;68.80;;;;;;5032213;28;20389;-81
2023/08/05 11:41:27;;;;;;;2.63;1.60;;;24.10;68.70;;;;;;5016980;28;20036;-78
2023/08/05 11:43:54;;;;;;;4.20;1.30;;;23.90;67.10;;;;;;5015818;28;20105;-80
2023/08/05 11:46:25;;;;;;;3.25;1.23;;;23.50;67.60;;;;;;5028784;28;20076;-79
2023/08/05 11:49:06;;;;;;;2.33;0.90;;;23.20;67.80;;;;;;5016135;28;20025;-78
2023/08/05 11:51:49;;;;;;;5.20;1.35;;;22.90;68.50;;;;;;4999640;28;20046;-84
2023/08/05 11:54:28;;;;;;;3.20;1.30;;;22.70;69.30;;;;;;5016139;28;20055;-85
2023/08/05 11:56:55;;;;;;;2.53;1.38;;;22.40;69.90;;;;;;5015879;28;20393;-85
2023/08/05 11:59:37;;;;;;;5.57;2.63;;;22.20;70.90;;;;;;4999621;28;20032;-84
2023/08/05 12:02:03;;;;;;;6.00;3.20;;;21.60;80.50;;;;;;5033650;28;20036;-83
2023/08/05 12:04:28;;;;;;;5.55;3.20;;;20.90;82.40;;;;;;5016047;28;20025;-83
2023/08/05 12:06:54;;;;;;;4.13;2.78;;;20.20;85.00;;;;;;4999614;28;20079;-90
2023/08/05 12:09:19;;;;;;;5.55;3.08;;;19.50;86.20;;;;;;4999892;28;20029;-90
2023/08/05 12:11:45;;;;;;;6.75;2.97;;;19.20;88.10;;;;;;5016548;28;20056;-80
2023/08/05 12:14:14;;;;;;;7.95;4.40;;;18.90;89.10;;;;;;5033534;28;20486;-90
2023/08/05 12:16:39;;;;;;;6.35;3.72;;;18.80;90.00;;;;;;5016386;28;20037;-89
2023/08/05 12:19:05;;;;;;;7.22;4.00;;;18.70;90.70;;;;;;5032058;28;20030;-89
2023/08/05 12:21:31;;;;;;;4.63;2.97;;;18.60;91.10;;;;;;4996578;28;20022;-86
2023/08/05 12:23:57;;;;;;;8.25;4.30;;;18.60;91.60;;;;;;4999672;28;20028;-88
2023/08/05 12:26:26;;;;;;;6.22;3.92;;;18.50;92.40;;;;;;4999848;28;20044;-82
2023/08/05 12:28:52;;;;;;;7.28;4.50;;;18.50;93.30;;;;;;5015572;28;20183;-83
2023/08/05 12:31:18;;;;;;;7.57;4.53;;;18.40;93.90;;;;;;5033000;28;20096;-84
2023/08/05 12:33:43;;;;;;;6.85;4.40;;;18.30;94.40;;;;;;5000602;28;20035;-82
2023/08/05 12:36:10;;;;;;;7.07;4.30;;;18.20;94.90;;;;;;4979920;28;20494;-84
2023/08/05 12:38:35;;;;;;;5.78;4.00;;;18.10;95.50;;;;;;4998683;28;20499;-84
2023/08/05 12:41:01;;;;;;;9.60;4.43;;;18.00;95.60;;;;;;4999344;28;20105;-83
2023/08/05 12:43:26;;;;;;;7.90;4.80;;;18.00;96.30;;;;;;5012903;28;20109;-84
2023/08/05 12:45:53;;;;;;;7.70;4.65;;;17.90;96.70;;;;;;4996870;28;20038;-85